Time;durP1;ratioP1;P1;durP2;ratioP2;P2;SDS_P1;SDS_P2;PMS_P1;PMS_P2;Temp;Humidity;BMP_temperature;BMP_pressure;BME280_temperature;BME280_humidity;BME280_pressure;Samples;Min_cycle;Max_cycle;Signal;HPM_P1;HPM_P2
2021/04/03 00:05:30;;;;;;;2.83;2.15;;;;;;;;;;4855363;28;20484;-56
2021/04/03 00:07:56;;;;;;;2.62;2.10;;;;;;;;;;4233752;33;20136;-57
2021/04/03 00:10:31;;;;;;;4.37;2.35;;;;;;;;;;4219634;33;20128;-59
2021/04/03 00:12:57;;;;;;;2.80;2.28;;;;;;;;;;4220155;34;20112;-58
2021/04/03 00:15:23;;;;;;;2.42;2.10;;;;;;;;;;4219769;34;20125;-58
2021/04/03 00:17:49;;;;;;;3.03;2.30;;;;;;;;;;4220038;34;20605;-60
2021/04/03 00:20:16;;;;;;;4.12;2.00;;;;;;;;;;4219878;34;20124;-59
2021/04/03 00:22:42;;;;;;;5.40;2.58;;;;;;;;;;4219905;34;20109;-58
2021/04/03 00:25:09;;;;;;;5.15;2.35;;;;;;;;;;4220036;34;20441;-58
2021/04/03 00:27:35;;;;;;;3.00;2.10;;;;;;;;;;4219957;34;20145;-59
2021/04/03 00:30:14;;;;;;;2.78;2.35;;;;;;;;;;4219773;34;20508;-59
2021/04/03 00:32:48;;;;;;;5.18;2.47;;;;;;;;;;4207206;34;20089;-61
2021/04/03 00:35:15;;;;;;;5.05;2.37;;;;;;;;;;4219728;34;20117;-60
2021/04/03 00:37:41;;;;;;;3.05;2.37;;;;;;;;;;4219866;34;20517;-62
2021/04/03 00:40:18;;;;;;;2.55;2.12;;;;;;;;;;4219813;34;20101;-62
2021/04/03 00:42:44;;;;;;;8.07;2.45;;;;;;;;;;4219862;34;20200;-59
2021/04/03 00:45:10;;;;;;;4.37;2.58;;;;;;;;;;4219893;34;20450;-59
2021/04/03 00:47:36;;;;;;;4.87;2.55;;;;;;;;;;4219737;34;20129;-59
2021/04/03 00:50:03;;;;;;;3.78;2.50;;;;;;;;;;4206991;34;20117;-59
2021/04/03 00:52:29;;;;;;;8.60;2.53;;;;;;;;;;4219942;34;20138;-59
2021/04/03 00:54:55;;;;;;;3.55;2.40;;;;;;;;;;4219678;34;20535;-59
2021/04/03 00:57:20;;;;;;;4.45;2.30;;;;;;;;;;4219875;34;20212;-59
2021/04/03 00:59:46;;;;;;;6.45;2.40;;;;;;;;;;4206874;34;20216;-59
2021/04/03 01:02:12;;;;;;;4.03;2.20;;;;;;;;;;4195061;34;20204;-59
2021/04/03 01:04:38;;;;;;;4.72;2.62;;;;;;;;;;4219561;34;20589;-59
2021/04/03 01:07:04;;;;;;;5.15;2.75;;;;;;;;;;4219389;34;20093;-60
2021/04/03 01:09:39;;;;;;;2.35;2.10;;;;;;;;;;4219568;34;20601;-58
2021/04/03 01:12:17;;;;;;;4.97;2.40;;;;;;;;;;4206666;34;20097;-58
2021/04/03 01:15:11;;;;;;;4.90;2.60;;;;;;;;;;4219228;34;20200;-59
2021/04/03 01:18:09;;;;;;;3.67;2.33;;;;;;;;;;4219597;34;20105;-58
2021/04/03 01:20:53;;;;;;;3.67;2.10;;;;;;;;;;4208538;34;20510;-59
2021/04/03 01:23:43;;;;;;;4.62;2.70;;;;;;;;;;4219692;34;20120;-58
2021/04/03 01:26:27;;;;;;;3.55;2.20;;;;;;;;;;4219234;34;20105;-58
2021/04/03 01:29:12;;;;;;;2.75;2.05;;;;;;;;;;4219738;34;20114;-59
2021/04/03 01:31:38;;;;;;;2.72;2.00;;;;;;;;;;4219238;34;20109;-59
2021/04/03 01:34:06;;;;;;;8.52;3.00;;;;;;;;;;4219482;34;20120;-60
2021/04/03 01:36:32;;;;;;;3.47;2.20;;;;;;;;;;4206432;34;20192;-59
2021/04/03 01:39:00;;;;;;;6.55;2.30;;;;;;;;;;4194908;34;20192;-60
2021/04/03 01:41:26;;;;;;;6.28;2.35;;;;;;;;;;4206219;34;20121;-59
2021/04/03 01:43:53;;;;;;;4.80;2.10;;;;;;;;;;4206631;34;20151;-60
2021/04/03 01:46:21;;;;;;;5.70;2.40;;;;;;;;;;4206562;34;20104;-59
2021/04/03 01:48:47;;;;;;;3.47;2.20;;;;;;;;;;4219477;34;20094;-59
2021/04/03 01:51:14;;;;;;;3.50;2.25;;;;;;;;;;4194782;34;20608;-59
2021/04/03 01:53:41;;;;;;;5.65;2.47;;;;;;;;;;4194825;34;20140;-59
2021/04/03 01:56:07;;;;;;;4.62;2.50;;;;;;;;;;4206048;34;20117;-60
2021/04/03 01:58:32;;;;;;;2.37;2.10;;;;;;;;;;4195048;34;20141;-61
2021/04/03 02:00:58;;;;;;;4.95;2.35;;;;;;;;;;4206297;34;20167;-60
2021/04/03 02:03:24;;;;;;;2.50;2.20;;;;;;;;;;4195050;34;20148;-60
2021/04/03 02:05:50;;;;;;;2.87;2.05;;;;;;;;;;4218735;33;20127;-60
2021/04/03 02:08:17;;;;;;;4.00;2.22;;;;;;;;;;4206129;34;20687;-60
2021/04/03 02:10:42;;;;;;;7.20;2.42;;;;;;;;;;4206285;34;20373;-60
2021/04/03 02:13:08;;;;;;;4.72;3.08;;;;;;;;;;4194718;34;20105;-60
2021/04/03 02:15:34;;;;;;;3.25;2.40;;;;;;;;;;4194506;34;20145;-60
2021/04/03 02:18:00;;;;;;;3.60;2.60;;;;;;;;;;4218982;34;20217;-61
2021/04/03 02:20:26;;;;;;;4.30;2.60;;;;;;;;;;4194423;34;20777;-61
2021/04/03 02:22:52;;;;;;;5.22;2.90;;;;;;;;;;4219148;34;20233;-60
2021/04/03 02:25:18;;;;;;;10.85;3.20;;;;;;;;;;4218789;34;20137;-59
2021/04/03 02:27:44;;;;;;;4.57;2.60;;;;;;;;;;4218892;34;20124;-59
2021/04/03 02:30:13;;;;;;;3.62;2.50;;;;;;;;;;4218711;34;20101;-59
2021/04/03 02:32:40;;;;;;;3.10;2.40;;;;;;;;;;4218870;34;20127;-59
2021/04/03 02:35:06;;;;;;;3.65;2.40;;;;;;;;;;4218734;34;20513;-58
2021/04/03 02:37:32;;;;;;;3.60;2.20;;;;;;;;;;4218779;34;20221;-58
2021/04/03 02:39:58;;;;;;;3.10;2.47;;;;;;;;;;4218817;34;20120;-59
2021/04/03 02:42:24;;;;;;;2.80;2.28;;;;;;;;;;4205674;34;20105;-58
2021/04/03 02:44:55;;;;;;;4.80;2.75;;;;;;;;;;4206170;34;20593;-58
2021/04/03 02:47:32;;;;;;;3.70;2.80;;;;;;;;;;4205998;34;20213;-58
2021/04/03 02:50:19;;;;;;;7.28;2.80;;;;;;;;;;4218998;34;20094;-59
2021/04/03 02:52:48;;;;;;;3.62;2.37;;;;;;;;;;4218712;34;20101;-59
2021/04/03 02:55:14;;;;;;;10.27;3.12;;;;;;;;;;4205885;34;20119;-59
2021/04/03 02:57:40;;;;;;;4.15;2.72;;;;;;;;;;4219016;34;20114;-60
2021/04/03 03:00:06;;;;;;;4.55;2.67;;;;;;;;;;4205664;34;20109;-59
2021/04/03 03:02:33;;;;;;;5.22;3.28;;;;;;;;;;4218510;34;20208;-60
2021/04/03 03:04:59;;;;;;;3.00;2.42;;;;;;;;;;4218498;34;20150;-60
2021/04/03 03:07:53;;;;;;;3.45;2.47;;;;;;;;;;4218290;34;20105;-60
2021/04/03 03:11:24;;;;;;;11.68;2.87;;;;;;;;;;4177067;34;20205;-60
2021/04/03 03:15:03;;;;;;;7.97;2.22;;;;;;;;;;4174314;34;20189;-64
2021/04/03 03:18:14;;;;;;;4.37;2.87;;;;;;;;;;4179150;34;20125;-59
2021/04/03 03:21:06;;;;;;;5.60;2.97;;;;;;;;;;4201635;34;20120;-58
2021/04/03 03:24:40;;;;;;;3.45;2.42;;;;;;;;;;4146452;34;20141;-59
2021/04/03 03:28:32;;;;;;;3.28;2.67;;;;;;;;;;4179447;34;20172;-60
2021/04/03 03:31:47;;;;;;;3.30;2.25;;;;;;;;;;4180890;34;20125;-60
2021/04/03 03:35:36;;;;;;;4.15;2.33;;;;;;;;;;4126104;34;20591;-61
2021/04/03 03:39:35;;;;;;;4.00;2.60;;;;;;;;;;4128944;34;20105;-60
2021/04/03 03:47:02;;;;;;;3.72;2.30;;;;;;;;;;4110034;34;20099;-60
2021/04/03 03:50:12;;;;;;;3.55;2.45;;;;;;;;;;4120403;34;20163;-60
2021/04/03 03:53:56;;;;;;;6.82;2.97;;;;;;;;;;4100605;34;20187;-63
2021/04/03 03:59:19;;;;;;;;;;;;;;;;;;;;;
2021/04/03 04:02:12;;;;;;;5.22;2.90;;;;;;;;;;4186042;34;20541;-66
2021/04/03 04:04:38;;;;;;;3.83;2.70;;;;;;;;;;4210656;34;20202;-62
2021/04/03 04:12:21;;;;;;;;;;;;;;;;;;;;;
2021/04/03 04:16:04;;;;;;;6.05;3.67;;;;;;;;;;4135244;34;20191;-60
2021/04/03 04:23:40;;;;;;;10.15;5.10;;;;;;;;;;4183557;34;20571;-61
2021/04/03 04:26:37;;;;;;;6.97;4.50;;;;;;;;;;4174990;34;20126;-59
2021/04/03 04:29:31;;;;;;;7.20;3.83;;;;;;;;;;4174332;34;20540;-60
2021/04/03 04:33:09;;;;;;;6.93;3.97;;;;;;;;;;4147857;34;20130;-60
2021/04/03 04:36:17;;;;;;;7.30;3.50;;;;;;;;;;4160367;34;20651;-60
2021/04/03 04:43:02;;;;;;;4.50;2.60;;;;;;;;;;4108860;29;20097;-60
2021/04/03 04:45:48;;;;;;;6.32;2.87;;;;;;;;;;4103196;34;20213;-62
2021/04/03 04:48:55;;;;;;;6.35;2.87;;;;;;;;;;4100273;34;20124;-61
2021/04/03 04:51:21;;;;;;;5.65;2.60;;;;;;;;;;4131542;34;20216;-61
2021/04/03 04:53:47;;;;;;;4.93;2.97;;;;;;;;;;4170148;34;20129;-61
2021/04/03 04:56:12;;;;;;;4.28;2.25;;;;;;;;;;4179825;34;20134;-60
2021/04/03 04:58:38;;;;;;;7.75;2.67;;;;;;;;;;4190037;34;20133;-63
2021/04/03 05:01:04;;;;;;;5.03;2.80;;;;;;;;;;4189950;34;20537;-63
2021/04/03 05:03:30;;;;;;;5.35;2.58;;;;;;;;;;4189818;34;20130;-63
2021/04/03 05:05:56;;;;;;;4.03;2.87;;;;;;;;;;4178275;34;20125;-62
2021/04/03 05:08:22;;;;;;;3.97;3.08;;;;;;;;;;4176223;34;20191;-59
2021/04/03 05:10:48;;;;;;;8.02;3.22;;;;;;;;;;4176473;34;20122;-63
2021/04/03 05:13:14;;;;;;;4.40;2.92;;;;;;;;;;4176371;34;20612;-61
2021/04/03 05:15:40;;;;;;;7.55;3.10;;;;;;;;;;4176360;34;20189;-62
2021/04/03 05:18:06;;;;;;;4.57;3.15;;;;;;;;;;4176204;34;20136;-65
2021/04/03 05:20:32;;;;;;;7.90;2.90;;;;;;;;;;4163422;34;20134;-66
2021/04/03 05:22:59;;;;;;;5.43;3.10;;;;;;;;;;4187756;34;20205;-65
2021/04/03 05:25:25;;;;;;;3.17;2.25;;;;;;;;;;4176965;34;20117;-64
2021/04/03 05:27:51;;;;;;;6.00;2.50;;;;;;;;;;4189818;34;20189;-64
2021/04/03 05:30:18;;;;;;;4.15;2.70;;;;;;;;;;4189666;34;20138;-61
2021/04/03 05:32:44;;;;;;;5.60;2.45;;;;;;;;;;4189939;34;20796;-62
2021/04/03 05:35:10;;;;;;;11.40;3.30;;;;;;;;;;4176935;34;20137;-61
2021/04/03 05:37:36;;;;;;;5.05;2.67;;;;;;;;;;4189801;34;20109;-62
2021/04/03 05:40:03;;;;;;;6.43;2.40;;;;;;;;;;4189728;34;20145;-61
2021/04/03 05:42:33;;;;;;;7.05;3.20;;;;;;;;;;4189711;34;20524;-62
2021/04/03 05:45:01;;;;;;;6.07;3.10;;;;;;;;;;4189905;34;20443;-61
2021/04/03 05:47:28;;;;;;;7.68;2.72;;;;;;;;;;4189800;34;20106;-63
2021/04/03 05:49:53;;;;;;;13.50;2.87;;;;;;;;;;4176627;34;20451;-61
2021/04/03 05:52:19;;;;;;;6.50;3.47;;;;;;;;;;4176639;34;20381;-61
2021/04/03 05:54:45;;;;;;;11.68;3.45;;;;;;;;;;4176801;34;20139;-61
2021/04/03 05:57:17;;;;;;;10.57;3.78;;;;;;;;;;4176915;34;20129;-61
2021/04/03 05:59:43;;;;;;;12.52;3.62;;;;;;;;;;4164974;34;20126;-60
2021/04/03 06:02:09;;;;;;;5.78;3.12;;;;;;;;;;4176387;34;20126;-59
2021/04/03 06:04:34;;;;;;;6.57;2.80;;;;;;;;;;4189620;34;20208;-57
2021/04/03 06:07:01;;;;;;;9.98;5.25;;;;;;;;;;4189680;34;20144;-59
2021/04/03 06:09:28;;;;;;;9.23;3.05;;;;;;;;;;4189927;34;20158;-59
2021/04/03 06:11:54;;;;;;;4.07;2.60;;;;;;;;;;4189767;34;20106;-59
2021/04/03 06:14:20;;;;;;;8.63;2.53;;;;;;;;;;4189551;34;20126;-60
2021/04/03 06:16:50;;;;;;;4.03;2.67;;;;;;;;;;4189489;34;20234;-60
2021/04/03 06:19:23;;;;;;;7.90;3.08;;;;;;;;;;4199648;34;20121;-59
2021/04/03 06:21:52;;;;;;;6.70;2.65;;;;;;;;;;4189449;34;20191;-60
2021/04/03 06:24:19;;;;;;;10.52;2.72;;;;;;;;;;4176839;34;20118;-60
2021/04/03 06:26:53;;;;;;;5.90;2.97;;;;;;;;;;4176022;34;20202;-59
2021/04/03 06:29:31;;;;;;;4.55;2.72;;;;;;;;;;4176031;34;20118;-60
2021/04/03 06:31:59;;;;;;;5.57;3.00;;;;;;;;;;4163226;34;20103;-61
2021/04/03 06:34:32;;;;;;;11.43;3.50;;;;;;;;;;4175882;34;20206;-60
2021/04/03 06:36:58;;;;;;;6.45;3.10;;;;;;;;;;4175667;34;20168;-60
2021/04/03 06:39:24;;;;;;;7.30;2.60;;;;;;;;;;4175828;34;20145;-60
2021/04/03 06:41:50;;;;;;;11.45;2.85;;;;;;;;;;4175772;34;20114;-60
2021/04/03 06:44:16;;;;;;;5.40;2.72;;;;;;;;;;4175854;34;20124;-60
2021/04/03 06:46:43;;;;;;;14.35;5.68;;;;;;;;;;4175715;34;20121;-58
2021/04/03 06:49:11;;;;;;;9.27;4.30;;;;;;;;;;4184781;34;20115;-62
2021/04/03 06:51:37;;;;;;;19.55;8.32;;;;;;;;;;4181701;34;20106;-59
2021/04/03 06:54:05;;;;;;;12.15;5.10;;;;;;;;;;4178107;34;20505;-62
2021/04/03 06:56:33;;;;;;;10.98;3.85;;;;;;;;;;4182602;34;20606;-60
2021/04/03 06:59:04;;;;;;;10.55;3.72;;;;;;;;;;4177097;34;20126;-59
2021/04/03 07:01:38;;;;;;;7.57;3.50;;;;;;;;;;4177010;34;20542;-61
2021/04/03 07:04:13;;;;;;;7.30;3.10;;;;;;;;;;4179500;34;20513;-61
2021/04/03 07:06:39;;;;;;;12.23;2.95;;;;;;;;;;4167166;34;20094;-61
2021/04/03 07:09:05;;;;;;;5.55;2.40;;;;;;;;;;4177940;34;20478;-61
2021/04/03 07:11:32;;;;;;;6.25;2.83;;;;;;;;;;4178180;34;20110;-59
2021/04/03 07:13:59;;;;;;;5.78;2.75;;;;;;;;;;4189877;34;20128;-60
2021/04/03 07:16:30;;;;;;;12.90;2.97;;;;;;;;;;4190761;34;20454;-61
2021/04/03 07:18:56;;;;;;;10.48;3.30;;;;;;;;;;4178241;34;20109;-62
2021/04/03 07:21:22;;;;;;;7.03;2.60;;;;;;;;;;4162741;34;20437;-62
2021/04/03 07:23:50;;;;;;;10.40;3.08;;;;;;;;;;4176877;34;20129;-61
2021/04/03 07:26:16;;;;;;;8.02;2.70;;;;;;;;;;4152819;34;20191;-61
2021/04/03 07:28:42;;;;;;;10.10;3.45;;;;;;;;;;4164142;34;20113;-61
2021/04/03 07:31:08;;;;;;;10.05;2.97;;;;;;;;;;4164048;34;20109;-60
2021/04/03 07:33:34;;;;;;;19.23;3.87;;;;;;;;;;4176771;34;20111;-62
2021/04/03 07:36:01;;;;;;;12.65;4.00;;;;;;;;;;4163868;34;20125;-62
2021/04/03 07:38:31;;;;;;;8.95;3.40;;;;;;;;;;4176649;34;20145;-62
2021/04/03 07:40:58;;;;;;;7.43;3.25;;;;;;;;;;4163964;34;20133;-62
2021/04/03 07:43:35;;;;;;;8.05;2.75;;;;;;;;;;4176462;34;20217;-59
2021/04/03 07:46:06;;;;;;;5.75;2.60;;;;;;;;;;4163960;34;20101;-59
2021/04/03 07:48:38;;;;;;;5.70;3.15;;;;;;;;;;4188996;34;20117;-61
2021/04/03 07:51:11;;;;;;;7.28;2.72;;;;;;;;;;4190238;34;20113;-61
2021/04/03 07:53:41;;;;;;;7.68;2.72;;;;;;;;;;4190402;34;20132;-62
2021/04/03 07:56:07;;;;;;;18.55;3.72;;;;;;;;;;4190084;34;20133;-62
2021/04/03 07:58:35;;;;;;;6.65;2.62;;;;;;;;;;4190053;34;20467;-62
2021/04/03 08:01:06;;;;;;;14.30;2.72;;;;;;;;;;4190096;34;20114;-62
2021/04/03 08:03:32;;;;;;;10.50;3.05;;;;;;;;;;4190006;34;20215;-60
2021/04/03 08:06:03;;;;;;;11.80;2.72;;;;;;;;;;4190270;34;20098;-62
2021/04/03 08:08:30;;;;;;;9.57;2.95;;;;;;;;;;4189871;34;20121;-62
2021/04/03 08:11:06;;;;;;;16.35;4.18;;;;;;;;;;4190326;34;20202;-62
2021/04/03 08:13:32;;;;;;;7.78;3.28;;;;;;;;;;4177311;34;20138;-63
2021/04/03 08:16:01;;;;;;;7.47;2.33;;;;;;;;;;4190104;34;20118;-63
2021/04/03 08:18:28;;;;;;;10.27;2.90;;;;;;;;;;4188800;34;20546;-57
2021/04/03 08:20:54;;;;;;;8.27;2.95;;;;;;;;;;4174721;34;20131;-58
2021/04/03 08:23:34;;;;;;;12.95;2.90;;;;;;;;;;4163792;34;20526;-59
2021/04/03 08:26:01;;;;;;;10.35;4.35;;;;;;;;;;4178166;34;20138;-55
2021/04/03 08:28:26;;;;;;;13.77;3.45;;;;;;;;;;4177764;34;20121;-57
2021/04/03 08:30:52;;;;;;;14.95;3.20;;;;;;;;;;4178254;34;20134;-57
2021/04/03 08:33:19;;;;;;;13.95;3.00;;;;;;;;;;4178150;34;20174;-57
2021/04/03 08:35:47;;;;;;;12.15;3.50;;;;;;;;;;4165451;34;20122;-57
2021/04/03 08:38:21;;;;;;;11.02;4.57;;;;;;;;;;4178140;34;20202;-57
2021/04/03 08:40:47;;;;;;;7.97;3.80;;;;;;;;;;4178155;34;20537;-58
2021/04/03 08:43:23;;;;;;;12.18;4.47;;;;;;;;;;4181470;34;20120;-57
2021/04/03 08:45:53;;;;;;;8.90;3.78;;;;;;;;;;4187711;34;20213;-58
2021/04/03 08:48:19;;;;;;;16.48;7.97;;;;;;;;;;4180669;34;20114;-58
2021/04/03 08:50:46;;;;;;;22.35;9.75;;;;;;;;;;4178896;34;20101;-57
2021/04/03 08:53:12;;;;;;;12.32;4.82;;;;;;;;;;4191636;34;20154;-59
2021/04/03 08:55:38;;;;;;;10.27;4.45;;;;;;;;;;4191862;34;20120;-60
2021/04/03 08:58:07;;;;;;;9.73;3.50;;;;;;;;;;4191701;34;20617;-60
2021/04/03 09:00:33;;;;;;;15.80;4.03;;;;;;;;;;4170997;34;20214;-60
2021/04/03 09:02:59;;;;;;;10.13;4.65;;;;;;;;;;4178232;34;20118;-61
2021/04/03 09:05:25;;;;;;;11.25;4.93;;;;;;;;;;4154325;34;20217;-60
2021/04/03 09:07:51;;;;;;;12.80;5.05;;;;;;;;;;4177928;34;20343;-58
2021/04/03 09:10:22;;;;;;;17.83;6.12;;;;;;;;;;4177888;34;20166;-65
2021/04/03 09:12:48;;;;;;;11.82;4.65;;;;;;;;;;4176615;34;20642;-60
2021/04/03 09:15:35;;;;;;;14.93;5.90;;;;;;;;;;4177845;34;20179;-60
2021/04/03 09:18:03;;;;;;;14.68;4.53;;;;;;;;;;4175777;34;20141;-60
2021/04/03 09:20:31;;;;;;;12.37;4.62;;;;;;;;;;4167271;34;20133;-61
2021/04/03 09:23:08;;;;;;;13.25;6.62;;;;;;;;;;4191748;34;20447;-60
2021/04/03 09:25:34;;;;;;;12.60;5.30;;;;;;;;;;4191523;34;20261;-61
2021/04/03 09:28:05;;;;;;;13.77;7.05;;;;;;;;;;4191389;34;20209;-61
2021/04/03 09:30:36;;;;;;;11.10;6.15;;;;;;;;;;4191568;34;20112;-60
2021/04/03 09:33:18;;;;;;;17.62;5.25;;;;;;;;;;4191334;34;20522;-60
2021/04/03 09:35:44;;;;;;;10.30;5.15;;;;;;;;;;4191448;34;20114;-59
2021/04/03 09:38:10;;;;;;;19.55;5.65;;;;;;;;;;4191110;34;20277;-61
2021/04/03 09:40:42;;;;;;;8.20;3.80;;;;;;;;;;4191645;34;20197;-60
2021/04/03 09:43:17;;;;;;;7.37;3.70;;;;;;;;;;4191152;34;20218;-60
2021/04/03 09:45:43;;;;;;;6.90;3.85;;;;;;;;;;4191591;34;20130;-58
2021/04/03 09:48:10;;;;;;;15.32;6.50;;;;;;;;;;4191500;34;20213;-59
2021/04/03 09:50:37;;;;;;;10.75;5.37;;;;;;;;;;4191614;34;20122;-59
2021/04/03 09:53:10;;;;;;;10.13;4.35;;;;;;;;;;4191351;34;20221;-58
2021/04/03 09:55:36;;;;;;;17.65;5.57;;;;;;;;;;4191218;34;20114;-60
2021/04/03 09:58:02;;;;;;;8.75;4.20;;;;;;;;;;4191259;34;20477;-61
2021/04/03 10:00:28;;;;;;;10.77;4.37;;;;;;;;;;4191196;34;20564;-60
2021/04/03 10:02:54;;;;;;;6.53;3.33;;;;;;;;;;4191281;34;20122;-59
2021/04/03 10:05:20;;;;;;;7.53;2.72;;;;;;;;;;4191497;34;20140;-60
2021/04/03 10:07:46;;;;;;;16.02;3.40;;;;;;;;;;4191217;34;20185;-61
2021/04/03 10:10:12;;;;;;;6.05;3.60;;;;;;;;;;4191153;34;20229;-60
2021/04/03 10:12:38;;;;;;;5.12;2.47;;;;;;;;;;4191159;34;20573;-59
2021/04/03 10:15:05;;;;;;;13.60;3.55;;;;;;;;;;4191154;34;20099;-60
2021/04/03 10:17:31;;;;;;;10.27;3.10;;;;;;;;;;4188330;34;20220;-59
2021/04/03 10:19:56;;;;;;;13.13;3.33;;;;;;;;;;4177520;34;20098;-60
2021/04/03 10:22:23;;;;;;;8.05;2.92;;;;;;;;;;4177310;34;20115;-60
2021/04/03 10:24:49;;;;;;;6.12;3.28;;;;;;;;;;4177475;34;20094;-60
2021/04/03 10:27:14;;;;;;;10.40;4.05;;;;;;;;;;4177298;34;20192;-60
2021/04/03 10:29:40;;;;;;;12.88;4.62;;;;;;;;;;4177633;34;20118;-61
2021/04/03 10:32:07;;;;;;;12.50;4.43;;;;;;;;;;4177254;34;20618;-60
2021/04/03 10:34:33;;;;;;;7.20;3.65;;;;;;;;;;4177584;34;20114;-60
2021/04/03 10:36:59;;;;;;;8.95;3.03;;;;;;;;;;4177374;34;20210;-61
2021/04/03 10:39:25;;;;;;;8.52;2.62;;;;;;;;;;4164604;34;20149;-61
2021/04/03 10:41:50;;;;;;;5.05;2.45;;;;;;;;;;4177135;34;20214;-62
2021/04/03 10:44:16;;;;;;;10.13;3.35;;;;;;;;;;4167773;34;20131;-62
2021/04/03 10:46:42;;;;;;;9.35;2.80;;;;;;;;;;4191244;34;20105;-61
2021/04/03 10:49:08;;;;;;;5.93;3.50;;;;;;;;;;4190064;34;20106;-61
2021/04/03 10:51:34;;;;;;;10.95;4.20;;;;;;;;;;4190936;34;20098;-61
2021/04/03 10:54:02;;;;;;;11.30;3.95;;;;;;;;;;4190852;34;20114;-62
2021/04/03 10:56:28;;;;;;;12.57;4.32;;;;;;;;;;4190847;34;20637;-62
2021/04/03 10:58:53;;;;;;;12.98;4.25;;;;;;;;;;4190876;34;20141;-61
2021/04/03 11:01:19;;;;;;;11.12;3.95;;;;;;;;;;4190715;34;20145;-62
2021/04/03 11:03:45;;;;;;;19.98;4.78;;;;;;;;;;4190883;34;20130;-62
2021/04/03 11:06:11;;;;;;;10.55;3.92;;;;;;;;;;4191033;34;20284;-61
2021/04/03 11:08:37;;;;;;;11.18;3.42;;;;;;;;;;4190718;34;20117;-61
2021/04/03 11:11:03;;;;;;;7.87;2.78;;;;;;;;;;4190715;34;20102;-62
2021/04/03 11:13:29;;;;;;;12.60;4.57;;;;;;;;;;4190745;34;20121;-62
2021/04/03 11:15:55;;;;;;;4.37;2.60;;;;;;;;;;4191018;34;20141;-63
2021/04/03 11:18:21;;;;;;;7.03;3.45;;;;;;;;;;4190644;34;20129;-60
2021/04/03 11:20:47;;;;;;;8.80;3.70;;;;;;;;;;4190647;34;20126;-61
2021/04/03 11:23:13;;;;;;;8.75;2.70;;;;;;;;;;4190491;34;20118;-61
2021/04/03 11:25:39;;;;;;;3.33;2.20;;;;;;;;;;4190595;34;20174;-62
2021/04/03 11:28:05;;;;;;;6.03;2.58;;;;;;;;;;4190785;34;20161;-61
2021/04/03 11:30:31;;;;;;;10.93;3.05;;;;;;;;;;4190555;34;20094;-62
2021/04/03 11:32:57;;;;;;;9.85;3.80;;;;;;;;;;4189428;34;20498;-61
2021/04/03 11:35:23;;;;;;;11.25;3.25;;;;;;;;;;4177641;34;20110;-62
2021/04/03 11:37:49;;;;;;;13.45;3.12;;;;;;;;;;4190639;34;20436;-61
2021/04/03 11:40:16;;;;;;;16.85;3.17;;;;;;;;;;4177701;34;20541;-61
2021/04/03 11:42:42;;;;;;;10.48;2.83;;;;;;;;;;4188783;34;20118;-61
2021/04/03 11:45:09;;;;;;;10.98;2.87;;;;;;;;;;4190389;34;20114;-61
2021/04/03 11:47:35;;;;;;;15.18;3.15;;;;;;;;;;4190312;34;20109;-60
2021/04/03 11:50:01;;;;;;;8.65;2.75;;;;;;;;;;4177724;34;20102;-61
2021/04/03 11:52:31;;;;;;;12.95;3.92;;;;;;;;;;4190239;34;20110;-61
2021/04/03 11:54:57;;;;;;;12.98;4.60;;;;;;;;;;4177605;34;20141;-64
2021/04/03 11:57:23;;;;;;;9.02;3.80;;;;;;;;;;4190180;34;20133;-62
2021/04/03 11:59:49;;;;;;;7.87;2.80;;;;;;;;;;4190873;34;20126;-63
2021/04/03 12:02:15;;;;;;;12.98;2.92;;;;;;;;;;4192410;34;20137;-63
2021/04/03 12:04:41;;;;;;;14.43;3.03;;;;;;;;;;4192425;34;20133;-63
2021/04/03 12:07:07;;;;;;;15.75;3.65;;;;;;;;;;4192194;34;20133;-62
2021/04/03 12:09:33;;;;;;;22.60;4.85;;;;;;;;;;4192341;34;20106;-62
2021/04/03 12:12:00;;;;;;;15.88;4.87;;;;;;;;;;4192212;34;20119;-62
2021/04/03 12:14:26;;;;;;;26.83;5.47;;;;;;;;;;4192501;34;20134;-62
2021/04/03 12:16:52;;;;;;;12.05;3.33;;;;;;;;;;4192398;34;20462;-63
2021/04/03 12:19:17;;;;;;;9.27;3.10;;;;;;;;;;4192572;34;20141;-63
2021/04/03 12:21:46;;;;;;;14.07;2.75;;;;;;;;;;4179412;34;20126;-63
2021/04/03 12:24:12;;;;;;;11.20;3.53;;;;;;;;;;4192003;34;20478;-63
2021/04/03 12:26:38;;;;;;;26.50;7.57;;;;;;;;;;4192360;34;20114;-63
2021/04/03 12:29:04;;;;;;;16.75;5.35;;;;;;;;;;4192093;34;20126;-63
2021/04/03 12:31:30;;;;;;;9.93;4.70;;;;;;;;;;4192029;34;20190;-63
2021/04/03 12:33:56;;;;;;;20.90;4.55;;;;;;;;;;4191898;34;20118;-63
2021/04/03 12:36:22;;;;;;;13.52;5.85;;;;;;;;;;4191946;34;20265;-63
2021/04/03 12:38:48;;;;;;;19.35;6.57;;;;;;;;;;4191993;34;20202;-52
2021/04/03 12:41:14;;;;;;;20.85;5.20;;;;;;;;;;4192056;34;20094;-53
2021/04/03 12:43:40;;;;;;;17.73;3.90;;;;;;;;;;4191937;34;20121;-53
2021/04/03 12:46:06;;;;;;;19.00;3.95;;;;;;;;;;4191981;34;20118;-53
2021/04/03 12:48:32;;;;;;;12.18;3.15;;;;;;;;;;4191928;34;20126;-56
2021/04/03 12:50:58;;;;;;;6.28;3.40;;;;;;;;;;4191818;34;20126;-54
2021/04/03 12:53:25;;;;;;;18.15;3.45;;;;;;;;;;4167777;34;20122;-53
2021/04/03 12:55:51;;;;;;;20.70;3.83;;;;;;;;;;4191841;34;20181;-52
2021/04/03 12:58:17;;;;;;;9.45;2.92;;;;;;;;;;4191836;34;20203;-53
2021/04/03 13:00:43;;;;;;;14.60;4.10;;;;;;;;;;4191814;34;20102;-54
2021/04/03 13:03:09;;;;;;;15.13;3.42;;;;;;;;;;4179058;34;20108;-56
2021/04/03 13:05:35;;;;;;;15.63;4.43;;;;;;;;;;4191778;34;20129;-55
2021/04/03 13:08:00;;;;;;;11.10;4.57;;;;;;;;;;4191733;34;20538;-57
2021/04/03 13:10:26;;;;;;;17.90;5.37;;;;;;;;;;4191571;34;20514;-57
2021/04/03 13:12:52;;;;;;;18.12;5.45;;;;;;;;;;4191387;34;20101;-55
2021/04/03 13:15:19;;;;;;;11.20;4.50;;;;;;;;;;4191858;34;20439;-59
2021/04/03 13:17:45;;;;;;;12.25;3.47;;;;;;;;;;4191567;34;20206;-59
2021/04/03 13:20:11;;;;;;;14.38;3.17;;;;;;;;;;4191965;34;20997;-57
2021/04/03 13:22:37;;;;;;;17.45;3.92;;;;;;;;;;4191378;34;20478;-55
2021/04/03 13:25:04;;;;;;;7.93;3.50;;;;;;;;;;4191671;34;20122;-58
2021/04/03 13:27:30;;;;;;;11.02;2.50;;;;;;;;;;4178750;34;20120;-58
2021/04/03 13:29:56;;;;;;;13.35;4.22;;;;;;;;;;4191592;34;20118;-58
2021/04/03 13:32:22;;;;;;;5.03;1.73;;;;;;;;;;4191496;34;20207;-58
2021/04/03 13:34:49;;;;;;;5.62;3.83;;;;;;;;;;4191644;34;20129;-60
2021/04/03 13:37:15;;;;;;;9.77;3.33;;;;;;;;;;4191422;34;20110;-57
2021/04/03 13:39:41;;;;;;;11.57;3.20;;;;;;;;;;4191645;34;20207;-57
2021/04/03 13:42:07;;;;;;;12.13;2.67;;;;;;;;;;4191659;34;20125;-58
2021/04/03 13:44:33;;;;;;;7.22;2.65;;;;;;;;;;4191549;34;20125;-59
2021/04/03 13:47:02;;;;;;;14.45;3.42;;;;;;;;;;4191615;34;20122;-57
2021/04/03 13:49:28;;;;;;;4.43;1.85;;;;;;;;;;4191494;34;20518;-56
2021/04/03 13:51:54;;;;;;;19.10;5.53;;;;;;;;;;4191451;34;20129;-58
2021/04/03 13:54:20;;;;;;;24.17;4.62;;;;;;;;;;4178345;34;20112;-58
2021/04/03 13:56:46;;;;;;;19.20;4.70;;;;;;;;;;4191275;34;20102;-60
2021/04/03 13:59:12;;;;;;;16.12;6.50;;;;;;;;;;4191178;34;20494;-62
2021/04/03 14:01:38;;;;;;;29.05;7.85;;;;;;;;;;4191571;34;20144;-62
2021/04/03 14:04:04;;;;;;;18.35;5.32;;;;;;;;;;4191281;34;20125;-61
2021/04/03 14:06:30;;;;;;;25.05;5.15;;;;;;;;;;4191278;34;20156;-62
2021/04/03 14:08:56;;;;;;;17.37;6.03;;;;;;;;;;4191152;34;20295;-62
2021/04/03 14:11:21;;;;;;;24.08;5.75;;;;;;;;;;4191235;34;20177;-63
2021/04/03 14:13:48;;;;;;;23.17;5.95;;;;;;;;;;4191654;34;20114;-61
2021/04/03 14:16:14;;;;;;;17.92;4.97;;;;;;;;;;4191072;34;20120;-59
2021/04/03 14:18:41;;;;;;;34.05;5.18;;;;;;;;;;4191202;34;20098;-61
2021/04/03 14:21:07;;;;;;;29.63;4.87;;;;;;;;;;4191094;34;20621;-61
2021/04/03 14:23:35;;;;;;;19.33;4.53;;;;;;;;;;4191007;34;20117;-59
2021/04/03 14:26:05;;;;;;;19.95;4.47;;;;;;;;;;4190934;34;20125;-61
2021/04/03 14:28:31;;;;;;;29.48;5.65;;;;;;;;;;4191160;34;20098;-60
2021/04/03 14:30:56;;;;;;;24.00;5.72;;;;;;;;;;4191122;34;20102;-60
2021/04/03 14:33:22;;;;;;;43.65;8.00;;;;;;;;;;4191036;34;20117;-59
2021/04/03 14:35:48;;;;;;;26.08;7.00;;;;;;;;;;4190884;34;20098;-61
2021/04/03 14:38:14;;;;;;;22.45;5.90;;;;;;;;;;4191098;34;20538;-61
2021/04/03 14:40:40;;;;;;;20.15;5.50;;;;;;;;;;4191002;34;20125;-61
2021/04/03 14:43:06;;;;;;;16.45;5.15;;;;;;;;;;4190766;34;20136;-61
2021/04/03 14:45:32;;;;;;;33.15;9.77;;;;;;;;;;4190605;34;20121;-60
2021/04/03 14:47:58;;;;;;;28.00;6.40;;;;;;;;;;4190819;34;20113;-63
2021/04/03 14:50:24;;;;;;;23.52;5.85;;;;;;;;;;4190739;34;20114;-59
2021/04/03 14:52:50;;;;;;;34.20;6.15;;;;;;;;;;4190922;34;20125;-59
2021/04/03 14:55:15;;;;;;;30.62;8.38;;;;;;;;;;4190742;34;20102;-59
2021/04/03 14:57:41;;;;;;;30.50;7.20;;;;;;;;;;4191050;34;20129;-61
2021/04/03 15:00:09;;;;;;;36.35;6.15;;;;;;;;;;4190778;34;20457;-60
2021/04/03 15:02:35;;;;;;;24.65;7.32;;;;;;;;;;4200904;34;20102;-62
2021/04/03 15:05:00;;;;;;;44.38;8.45;;;;;;;;;;4190864;34;20194;-59
2021/04/03 15:07:26;;;;;;;42.92;8.82;;;;;;;;;;4178078;34;20459;-58
2021/04/03 15:09:52;;;;;;;37.47;6.95;;;;;;;;;;4190687;34;20108;-60
2021/04/03 15:12:18;;;;;;;41.67;7.60;;;;;;;;;;4190596;34;20149;-60
2021/04/03 15:14:44;;;;;;;34.60;6.47;;;;;;;;;;4190554;34;20195;-60
2021/04/03 15:17:10;;;;;;;31.35;6.20;;;;;;;;;;4190473;34;20213;-59
2021/04/03 15:19:36;;;;;;;39.75;7.53;;;;;;;;;;4190638;34;20133;-59
2021/04/03 15:22:02;;;;;;;42.53;7.87;;;;;;;;;;4190694;34;20114;-60
2021/04/03 15:24:28;;;;;;;37.33;7.53;;;;;;;;;;4178073;34;20126;-59